createdAt,value
2023-04-24T16:16:50.955Z,15.80
2023-04-24T16:17:02.319Z,13.10
2023-04-24T16:17:11.285Z,16.60
2023-04-24T16:17:21.657Z,19.50
2023-04-24T16:17:32.311Z,17.60
2023-04-24T16:17:41.723Z,15.10
2023-04-24T16:17:51.916Z,12.90
2023-04-24T16:18:11.074Z,11.60
2023-04-24T16:18:22.254Z,15.10
2023-04-24T16:18:33.029Z,16.20
2023-04-24T16:18:42.571Z,17.90
2023-04-24T16:18:52.641Z,14.30
2023-04-24T16:19:02.710Z,13.20
2023-04-24T16:19:13.145Z,10.80
2023-04-24T16:19:22.852Z,11.00
2023-04-24T16:19:34.151Z,11.60
2023-04-24T16:19:43.084Z,12.90
2023-04-24T16:19:53.386Z,11.30
2023-04-24T16:20:03.382Z,11.60
2023-04-24T16:20:14.346Z,13.40
2023-04-24T16:20:23.613Z,14.10
2023-04-24T16:20:44.732Z,16.10
2023-04-24T16:20:54.788Z,17.30
2023-04-24T16:21:04.296Z,15.80
2023-04-24T16:21:14.718Z,12.70
2023-04-24T16:21:24.441Z,15.00
2023-04-24T16:21:34.661Z,16.00
2023-04-24T16:21:45.589Z,17.00
2023-04-24T16:21:54.981Z,24.90
2023-04-24T16:22:05.104Z,28.80
2023-04-24T16:22:15.972Z,27.40
2023-04-24T16:22:25.277Z,23.00
2023-04-24T16:22:35.429Z,17.60
2023-04-24T16:22:45.594Z,18.20
2023-04-24T16:22:55.661Z,22.20
2023-04-24T16:23:05.765Z,21.30
2023-04-24T16:23:15.916Z,19.30
2023-04-24T16:23:26.177Z,8.00
2023-04-24T16:23:36.130Z,5.90
2023-04-24T16:23:46.310Z,7.50
2023-04-24T16:23:56.410Z,26.30
2023-04-24T16:24:06.669Z,32.10
2023-04-24T16:24:16.793Z,34.70
2023-04-24T16:24:26.906Z,20.60
2023-04-24T16:24:37.985Z,18.00
2023-04-24T16:24:46.980Z,14.60
2023-04-24T16:24:57.133Z,17.40
2023-04-24T16:25:07.256Z,23.40
2023-04-24T16:25:17.407Z,25.60
2023-04-24T16:25:27.689Z,26.80
2023-04-24T16:25:47.807Z,18.30
2023-04-24T16:25:57.971Z,14.90
2023-04-24T16:26:08.056Z,24.70
2023-04-24T16:26:18.314Z,41.30
2023-04-24T16:26:28.495Z,39.60
2023-04-24T16:26:38.577Z,30.40
2023-04-24T16:26:48.670Z,13.00
2023-04-24T16:26:58.784Z,14.20
2023-04-24T16:27:08.819Z,15.20
2023-04-24T16:27:19.579Z,18.10
2023-04-24T16:27:29.100Z,18.70
2023-04-24T16:27:39.183Z,17.50
2023-04-24T16:27:49.206Z,14.40
2023-04-24T16:27:59.309Z,13.20
2023-04-24T16:28:09.551Z,15.50
2023-04-24T16:28:19.907Z,17.20
2023-04-24T16:28:29.938Z,17.40
2023-04-24T16:28:39.942Z,15.80
2023-04-24T16:28:51.067Z,14.10
2023-04-24T16:29:00.266Z,15.00
2023-04-24T16:29:10.358Z,15.30
2023-04-24T16:29:20.416Z,14.50
2023-04-24T16:29:30.936Z,12.90
2023-04-24T16:29:40.782Z,13.80
2023-04-24T16:30:02.832Z,16.80
2023-04-24T16:30:11.228Z,20.80
2023-04-24T16:30:21.297Z,22.50
2023-04-24T16:30:32.432Z,22.50
2023-04-24T16:30:41.555Z,19.40
2023-04-24T16:30:52.513Z,21.40
2023-04-24T16:31:11.909Z,18.90
2023-04-24T16:31:21.943Z,17.80
2023-04-24T16:31:32.193Z,18.80
2023-04-24T16:31:42.199Z,18.50
2023-04-24T16:31:52.457Z,19.50
2023-04-24T16:32:02.951Z,25.10
2023-04-24T16:32:12.715Z,29.00
2023-04-24T16:32:22.729Z,27.90
2023-04-24T16:32:34.197Z,22.70
2023-04-24T16:32:43.043Z,21.20
2023-04-24T16:32:53.419Z,21.70
2023-04-24T16:33:03.893Z,19.40
2023-04-24T16:33:13.447Z,15.50
2023-04-24T16:33:23.595Z,12.30
2023-04-24T16:33:44.523Z,13.70
2023-04-24T16:33:53.949Z,15.50
2023-04-24T16:34:04.151Z,14.70
2023-04-24T16:34:14.274Z,16.00
2023-04-24T16:34:25.514Z,23.00
2023-04-24T16:34:34.530Z,26.70
2023-04-24T16:34:45.538Z,29.90
2023-04-24T16:34:54.844Z,27.60
2023-04-24T16:35:04.890Z,33.70
2023-04-24T16:35:15.081Z,36.00
2023-04-24T16:35:34.270Z,33.30
2023-04-24T16:35:45.396Z,36.20
2023-04-24T16:35:56.660Z,39.20
2023-04-24T16:36:07.344Z,33.00
2023-04-24T16:36:15.789Z,31.40
2023-04-24T16:36:25.893Z,29.40
2023-04-24T16:36:35.946Z,42.70
2023-04-24T16:36:46.184Z,48.10
2023-04-24T16:37:06.442Z,59.00
2023-04-24T16:37:16.513Z,50.30
2023-04-24T16:37:26.581Z,27.80
2023-04-24T16:37:36.663Z,26.10
2023-04-24T16:37:47.910Z,25.40
2023-04-24T16:37:57.180Z,23.10
2023-04-24T16:38:07.899Z,21.30
2023-04-24T16:38:17.351Z,17.80
2023-04-24T16:38:27.473Z,16.60
2023-04-24T16:38:37.524Z,14.10
2023-04-24T16:38:57.781Z,14.90
2023-04-24T16:39:08.520Z,14.40
2023-04-24T16:39:17.976Z,15.00
2023-04-24T16:39:28.125Z,13.20
2023-04-24T16:39:38.345Z,17.30
2023-04-24T16:39:48.410Z,18.30
2023-04-24T16:39:58.402Z,21.10
2023-04-24T16:40:08.742Z,17.60
2023-04-24T16:40:18.878Z,15.90
2023-04-24T16:40:30.370Z,11.70
2023-04-24T16:40:39.322Z,10.10
2023-04-24T16:40:51.491Z,11.20
2023-04-24T16:40:59.144Z,14.60
2023-04-24T16:41:09.241Z,15.20
2023-04-24T16:41:19.366Z,15.90
2023-04-24T16:41:38.563Z,16.30
2023-04-24T16:41:49.659Z,17.30
2023-04-24T16:42:00.845Z,16.90
2023-04-24T16:42:09.893Z,16.90
2023-04-24T16:42:20.047Z,17.70
2023-04-24T16:42:30.298Z,17.70
2023-04-24T16:42:40.356Z,19.30
2023-04-24T16:42:50.399Z,21.10
2023-04-24T16:43:00.539Z,27.20
2023-04-24T16:43:10.687Z,26.10
2023-04-24T16:43:20.770Z,21.50
2023-04-24T16:43:30.775Z,14.50
2023-04-24T16:43:41.012Z,18.20
2023-04-24T16:43:51.207Z,16.10
2023-04-24T16:44:01.346Z,15.10
2023-04-24T16:44:11.413Z,12.30
2023-04-24T16:44:21.572Z,13.40
2023-04-24T16:44:31.726Z,13.70
2023-04-24T16:44:41.916Z,12.00
2023-04-24T16:44:52.016Z,12.70
2023-04-24T16:45:10.346Z,13.80
2023-04-24T16:45:34.788Z,17.50
2023-04-24T16:45:41.624Z,21.30
2023-04-24T16:45:52.380Z,19.60
2023-04-24T16:46:04.166Z,19.50
2023-04-24T16:46:14.104Z,20.10
2023-04-24T16:46:22.860Z,27.20
2023-04-24T16:46:44.771Z,21.90
2023-04-24T16:46:56.748Z,14.20
2023-04-24T16:47:05.183Z,14.20
2023-04-24T16:47:13.250Z,15.70
2023-04-24T16:47:24.633Z,24.20
2023-04-24T16:47:35.607Z,26.30
2023-04-24T16:47:46.718Z,27.10
2023-04-24T16:47:56.413Z,22.10
2023-04-24T16:48:08.198Z,20.80
2023-04-24T16:48:19.540Z,20.80
2023-04-24T16:48:28.437Z,18.50
2023-04-24T16:48:37.145Z,20.40
2023-04-24T16:49:00.150Z,29.50
2023-04-24T16:49:15.779Z,38.80
2023-04-24T16:49:25.515Z,49.70
2023-04-24T16:49:37.412Z,59.70
2023-04-24T16:49:54.834Z,56.00
2023-04-24T16:50:04.251Z,53.30
2023-04-24T16:50:14.061Z,40.30
2023-04-24T16:50:23.349Z,27.80
2023-04-24T16:50:32.783Z,23.60
2023-04-24T16:50:42.915Z,26.70
2023-04-24T16:50:55.778Z,29.70
2023-04-24T16:51:15.851Z,28.40
2023-04-24T16:51:31.290Z,34.70
2023-04-24T16:51:37.258Z,31.40
2023-04-24T16:51:45.090Z,28.70
2023-04-24T16:51:56.087Z,17.80
2023-04-24T16:52:05.288Z,17.60
2023-04-24T16:52:15.706Z,15.80
2023-04-24T16:52:27.727Z,16.50
2023-04-24T16:52:37.578Z,19.30
2023-04-24T16:52:49.312Z,23.60
2023-04-24T16:52:57.182Z,38.10
2023-04-24T16:53:06.084Z,40.00
2023-04-24T16:53:19.554Z,48.70
2023-04-24T16:53:41.680Z,42.20
2023-04-24T16:53:48.760Z,33.40
2023-04-24T16:54:03.107Z,31.80
2023-04-24T16:54:09.162Z,35.60
2023-04-24T16:54:19.352Z,32.50
2023-04-24T16:54:29.580Z,35.20
2023-04-24T16:54:50.036Z,33.00
2023-04-24T16:54:59.888Z,29.70
2023-04-24T16:55:10.207Z,30.00
2023-04-24T16:55:20.103Z,34.80
2023-04-24T16:55:31.111Z,44.70
2023-04-24T16:55:40.392Z,48.50
2023-04-24T16:55:51.528Z,35.10
2023-04-24T16:56:00.672Z,22.80
2023-04-24T16:56:10.692Z,17.50
2023-04-24T16:56:20.883Z,14.70
2023-04-24T16:56:45.893Z,10.90
2023-04-24T16:56:51.646Z,13.70
2023-04-24T16:57:02.224Z,23.50
2023-04-24T16:57:10.329Z,26.80
2023-04-24T16:57:22.076Z,22.90
2023-04-24T16:57:37.952Z,14.10
2023-04-24T16:57:54.107Z,9.50
2023-04-24T16:58:04.185Z,12.20
2023-04-24T16:58:15.290Z,13.70
2023-04-24T16:58:27.364Z,14.40
2023-04-24T16:58:38.428Z,10.80
2023-04-24T16:58:45.525Z,9.30
2023-04-24T16:58:55.795Z,16.70
2023-04-24T16:59:05.748Z,23.70
2023-04-24T16:59:17.207Z,28.40
2023-04-24T16:59:28.146Z,20.90
2023-04-24T16:59:50.558Z,21.70
2023-04-24T16:59:56.639Z,24.20
2023-04-24T17:00:11.607Z,30.30
2023-04-24T17:00:17.665Z,23.70
2023-04-24T17:00:28.808Z,19.50
2023-04-24T17:00:39.301Z,8.00
2023-04-24T17:01:02.524Z,11.90
2023-04-24T17:01:09.856Z,13.40
2023-04-24T17:01:19.549Z,14.20
2023-04-24T17:01:29.705Z,13.30
2023-04-24T17:01:39.761Z,12.70
2023-04-24T17:01:49.976Z,23.10
2023-04-24T17:02:10.184Z,23.70
2023-04-24T17:02:20.362Z,11.70
2023-04-24T17:02:30.449Z,14.00
2023-04-24T17:02:40.623Z,14.40
2023-04-24T17:02:51.023Z,12.60
2023-04-24T17:03:00.906Z,12.90
2023-04-24T17:03:12.632Z,16.90
2023-04-24T17:03:21.358Z,16.40
2023-04-24T17:03:31.361Z,15.70
2023-04-24T17:03:41.740Z,15.40
2023-04-24T17:03:51.472Z,30.80
2023-04-24T17:04:01.692Z,30.40
2023-04-24T17:04:11.748Z,30.70
2023-04-24T17:04:21.832Z,27.80
2023-04-24T17:04:32.159Z,28.40
2023-04-24T17:04:43.010Z,27.70
2023-04-24T17:04:52.223Z,15.30
2023-04-24T17:05:02.969Z,14.20
2023-04-24T17:05:12.567Z,20.10
2023-04-24T17:05:23.210Z,22.60
2023-04-24T17:05:32.810Z,46.90
2023-04-24T17:05:53.036Z,42.00
